createdAt,value
2022-09-28T00:01:18.433Z,7.72
2022-09-28T00:03:47.166Z,8.70
2022-09-28T00:06:20.346Z,7.78
2022-09-28T00:08:50.159Z,7.20
2022-09-28T00:11:21.037Z,8.35
2022-09-28T00:13:52.431Z,8.27
2022-09-28T00:16:24.049Z,8.65
2022-09-28T00:18:52.595Z,8.07
2022-09-28T00:21:24.329Z,8.73
2022-09-28T00:24:16.146Z,6.72
2022-09-28T00:26:48.872Z,7.78
2022-09-28T00:29:23.966Z,8.20
2022-09-28T00:31:57.247Z,7.25
2022-09-28T00:34:25.384Z,7.32
2022-09-28T00:36:54.962Z,7.68
2022-09-28T00:39:24.108Z,6.93
2022-09-28T00:41:52.237Z,8.10
2022-09-28T00:44:44.401Z,7.80
2022-09-28T00:47:49.714Z,6.97
2022-09-28T00:50:28.097Z,6.25
2022-09-28T00:53:02.227Z,9.00
2022-09-28T00:55:38.432Z,7.25
2022-09-28T00:58:09.886Z,7.60
2022-09-28T01:00:40.622Z,6.82
2022-09-28T01:03:09.545Z,7.70
2022-09-28T01:05:40.664Z,7.30
2022-09-28T01:08:13.329Z,8.17
2022-09-28T01:10:43.544Z,7.30
2022-09-28T01:13:12.505Z,12.30
2022-09-28T01:15:50.652Z,6.53
2022-09-28T01:18:30.055Z,7.30
2022-09-28T01:21:03.289Z,6.20
2022-09-28T01:24:10.303Z,5.95
2022-09-28T01:27:16.416Z,6.80
2022-09-28T01:29:53.554Z,6.20
2022-09-28T01:32:36.934Z,6.75
2022-09-28T01:35:10.913Z,6.82
2022-09-28T01:37:49.197Z,6.50
2022-09-28T01:40:20.098Z,6.07
2022-09-28T01:42:54.809Z,6.13
2022-09-28T01:45:28.969Z,6.55
2022-09-28T01:48:02.845Z,6.53
2022-09-28T01:50:36.121Z,6.72
2022-09-28T01:53:12.364Z,5.93
2022-09-28T01:55:46.335Z,5.80
2022-09-28T01:58:23.339Z,6.57
2022-09-28T02:01:01.595Z,6.35
2022-09-28T02:03:38.207Z,6.63
2022-09-28T02:06:12.458Z,6.97
2022-09-28T02:08:47.833Z,6.00
2022-09-28T02:11:19.136Z,5.13
2022-09-28T02:13:54.707Z,3.65
2022-09-28T02:16:33.539Z,3.92
2022-09-28T02:19:02.056Z,4.38
2022-09-28T02:21:38.238Z,4.00
2022-09-28T02:24:19.329Z,3.85
2022-09-28T02:26:52.127Z,3.50
2022-09-28T02:29:21.548Z,3.65
2022-09-28T02:31:50.079Z,3.70
2022-09-28T02:34:18.466Z,3.90
2022-09-28T02:36:48.164Z,3.33
2022-09-28T02:39:17.975Z,4.20
2022-09-28T02:42:00.375Z,4.18
2022-09-28T02:44:51.288Z,3.55
2022-09-28T02:47:37.538Z,4.03
2022-09-28T02:50:20.944Z,3.95
2022-09-28T02:53:19.749Z,3.90
2022-09-28T02:56:06.456Z,4.13
2022-09-28T02:58:44.227Z,3.97
2022-09-28T03:01:29.038Z,4.47
2022-09-28T03:04:08.425Z,4.32
2022-09-28T03:06:44.863Z,4.53
2022-09-28T03:09:23.841Z,4.78
2022-09-28T03:11:56.945Z,5.22
2022-09-28T03:14:25.513Z,4.60
2022-09-28T03:16:58.644Z,4.55
2022-09-28T03:19:32.528Z,4.63
2022-09-28T03:22:01.862Z,4.72
2022-09-28T03:24:29.893Z,4.35
2022-09-28T03:26:57.963Z,5.57
2022-09-28T03:29:26.585Z,5.68
2022-09-28T03:32:01.668Z,5.85
2022-09-28T03:34:30.110Z,5.70
2022-09-28T03:36:58.222Z,5.30
2022-09-28T03:39:26.326Z,5.88
2022-09-28T03:41:54.335Z,5.78
2022-09-28T03:44:23.069Z,7.22
2022-09-28T03:46:51.433Z,7.88
2022-09-28T03:49:20.855Z,8.05
2022-09-28T03:51:50.834Z,8.80
2022-09-28T03:54:19.054Z,8.85
2022-09-28T03:56:47.095Z,8.68
2022-09-28T03:59:15.469Z,8.55
2022-09-28T04:01:43.719Z,9.35
2022-09-28T04:04:13.440Z,9.25
2022-09-28T04:06:43.010Z,9.30
2022-09-28T04:09:11.784Z,8.75
2022-09-28T04:11:59.714Z,9.13
2022-09-28T04:14:28.206Z,9.13
2022-09-28T04:16:56.268Z,8.15
2022-09-28T04:19:26.760Z,9.93
2022-09-28T04:22:09.040Z,9.50
2022-09-28T04:24:37.071Z,9.00
2022-09-28T04:27:22.955Z,9.27
2022-09-28T04:29:51.010Z,9.35
2022-09-28T04:32:19.424Z,9.10
2022-09-28T04:34:47.950Z,10.52
2022-09-28T04:37:17.281Z,9.43
2022-09-28T04:39:48.387Z,9.05
2022-09-28T04:42:18.971Z,9.63
2022-09-28T04:44:47.317Z,9.68
2022-09-28T04:47:15.368Z,11.40
2022-09-28T04:50:01.624Z,10.85
2022-09-28T04:52:37.610Z,11.48
2022-09-28T04:55:06.466Z,11.15
2022-09-28T04:57:36.163Z,15.07
2022-09-28T05:00:06.055Z,12.02
2022-09-28T05:02:40.171Z,15.38
2022-09-28T05:05:10.869Z,14.32
2022-09-28T05:08:00.558Z,14.30
2022-09-28T05:10:28.556Z,15.38
2022-09-28T05:12:56.975Z,14.65
2022-09-28T05:15:25.589Z,17.25
2022-09-28T05:17:54.442Z,16.73
2022-09-28T05:20:30.621Z,18.10
2022-09-28T05:23:00.034Z,14.80
2022-09-28T05:25:28.206Z,16.73
2022-09-28T05:28:05.226Z,15.55
2022-09-28T05:30:52.131Z,15.90
2022-09-28T05:33:43.121Z,18.50
2022-09-28T05:36:13.260Z,14.35
2022-09-28T05:38:44.405Z,15.23
2022-09-28T05:41:12.624Z,16.20
2022-09-28T05:43:40.742Z,16.77
2022-09-28T05:46:09.115Z,16.33
2022-09-28T05:48:40.111Z,17.43
2022-09-28T05:51:10.085Z,18.60
2022-09-28T05:53:38.157Z,17.85
2022-09-28T05:56:07.953Z,17.20
2022-09-28T05:58:37.803Z,18.10
2022-09-28T06:01:06.304Z,16.48
2022-09-28T06:03:34.455Z,18.10
2022-09-28T06:06:02.881Z,17.83
2022-09-28T06:08:33.275Z,14.52
2022-09-28T06:11:24.744Z,16.33
2022-09-28T06:13:55.349Z,14.15
2022-09-28T06:16:24.143Z,16.55
2022-09-28T06:18:52.910Z,17.27
2022-09-28T06:21:36.757Z,15.35
2022-09-28T06:24:05.752Z,16.40
2022-09-28T06:26:35.211Z,17.52
2022-09-28T06:29:03.509Z,17.92
2022-09-28T06:31:31.870Z,18.67
2022-09-28T06:34:02.065Z,17.55
2022-09-28T06:36:31.244Z,17.35
2022-09-28T06:38:59.287Z,16.27
2022-09-28T06:41:27.446Z,14.68
2022-09-28T06:44:02.036Z,15.02
2022-09-28T06:46:48.528Z,16.85
2022-09-28T06:49:36.850Z,14.25
2022-09-28T06:52:25.485Z,15.00
2022-09-28T06:55:06.395Z,15.80
2022-09-28T06:57:45.190Z,16.23
2022-09-28T07:00:16.411Z,17.65
2022-09-28T07:02:46.982Z,16.90
2022-09-28T07:05:36.965Z,14.77
2022-09-28T07:08:26.144Z,14.85
2022-09-28T07:11:07.767Z,14.55
2022-09-28T07:13:51.924Z,13.18
2022-09-28T07:16:29.589Z,15.20
2022-09-28T07:19:03.355Z,13.02
2022-09-28T07:21:31.397Z,13.25
2022-09-28T07:24:04.074Z,14.93
2022-09-28T07:26:51.100Z,15.30
2022-09-28T07:29:46.990Z,16.15
2022-09-28T07:32:38.967Z,15.13
2022-09-28T07:35:19.760Z,13.50
2022-09-28T07:37:58.708Z,14.77
2022-09-28T07:40:48.271Z,15.30
2022-09-28T07:43:20.521Z,14.88
2022-09-28T07:45:54.018Z,14.52
2022-09-28T07:51:11.408Z,13.05
2022-09-28T07:53:48.706Z,16.08
2022-09-28T07:56:35.086Z,15.48
2022-09-28T07:59:28.324Z,15.20
2022-09-28T08:02:15.179Z,15.63
2022-09-28T08:04:44.946Z,16.77
2022-09-28T08:07:14.181Z,14.13
2022-09-28T08:09:42.429Z,11.65
2022-09-28T08:12:30.406Z,16.00
2022-09-28T08:15:36.992Z,13.75
2022-09-28T08:18:12.881Z,15.35
2022-09-28T08:20:59.852Z,14.32
2022-09-28T08:23:28.163Z,13.48
2022-09-28T08:25:56.601Z,13.70
2022-09-28T08:28:26.133Z,15.60
2022-09-28T08:31:01.930Z,15.50
2022-09-28T08:33:32.757Z,13.88
2022-09-28T08:36:21.108Z,16.85
2022-09-28T08:38:55.993Z,14.52
2022-09-28T08:41:36.793Z,15.32
2022-09-28T08:44:26.130Z,15.80
2022-09-28T08:47:33.564Z,13.75
2022-09-28T08:50:27.878Z,12.60
2022-09-28T08:53:34.291Z,13.05
2022-09-28T08:56:33.520Z,12.88
2022-09-28T08:59:06.298Z,14.70
2022-09-28T09:01:41.849Z,14.32
2022-09-28T09:04:14.990Z,11.60
2022-09-28T09:07:30.984Z,13.45
2022-09-28T09:10:30.135Z,11.85
2022-09-28T09:13:15.126Z,12.50
2022-09-28T09:15:55.104Z,11.38
2022-09-28T09:19:04.746Z,10.52
2022-09-28T09:21:47.096Z,10.88
2022-09-28T09:24:27.260Z,12.00
2022-09-28T09:27:07.459Z,11.35
2022-09-28T09:30:02.404Z,11.32
2022-09-28T09:32:56.670Z,10.00
2022-09-28T09:35:51.335Z,9.05
2022-09-28T09:39:01.853Z,8.48
2022-09-28T09:42:10.388Z,9.90
2022-09-28T09:45:29.727Z,8.52
2022-09-28T09:48:39.552Z,9.77
2022-09-28T09:51:19.044Z,8.45
2022-09-28T09:53:53.681Z,6.07
2022-09-28T09:56:28.108Z,8.27
2022-09-28T09:59:23.015Z,8.05
2022-09-28T10:02:24.043Z,9.38
2022-09-28T10:05:29.251Z,6.78
2022-09-28T10:08:04.528Z,3.17
2022-09-28T10:10:36.943Z,3.47
2022-09-28T10:13:11.292Z,5.50
2022-09-28T10:15:43.276Z,5.53
2022-09-28T10:18:22.145Z,5.00
2022-09-28T10:21:15.084Z,4.95
2022-09-28T10:24:00.389Z,5.95
2022-09-28T10:26:36.244Z,5.47
2022-09-28T10:29:14.642Z,5.53
2022-09-28T10:31:48.277Z,6.35
2022-09-28T10:34:30.044Z,5.00
2022-09-28T10:37:07.584Z,6.07
2022-09-28T10:39:57.223Z,6.35
2022-09-28T10:42:31.895Z,6.40
2022-09-28T10:45:06.040Z,6.28
2022-09-28T10:47:44.273Z,7.03
2022-09-28T10:50:24.473Z,5.45
2022-09-28T10:53:20.468Z,6.95
2022-09-28T10:56:07.679Z,6.35
2022-09-28T10:58:40.611Z,6.50
2022-09-28T11:01:15.612Z,5.97
2022-09-28T11:03:56.328Z,4.90
2022-09-28T11:06:27.898Z,5.32
2022-09-28T11:11:28.682Z,6.00
2022-09-28T11:14:04.318Z,4.97
2022-09-28T11:16:37.752Z,3.78
2022-09-28T11:19:29.733Z,3.58
2022-09-28T11:21:57.790Z,4.10
2022-09-28T11:24:35.007Z,3.63
2022-09-28T11:27:05.460Z,4.07
2022-09-28T11:29:39.810Z,3.70
2022-09-28T11:32:40.467Z,4.00
2022-09-28T11:35:26.220Z,3.80
2022-09-28T11:38:18.880Z,4.25
2022-09-28T11:41:26.028Z,3.70
2022-09-28T11:44:18.283Z,4.45
2022-09-28T11:47:02.289Z,4.72
2022-09-28T11:49:40.003Z,5.57
2022-09-28T11:52:18.389Z,3.72
2022-09-28T11:54:53.678Z,5.00
2022-09-28T11:57:28.602Z,5.38
2022-09-28T12:00:02.217Z,5.60
2022-09-28T12:02:40.306Z,4.78
2022-09-28T12:05:22.550Z,5.03
2022-09-28T12:08:00.223Z,5.10
2022-09-28T12:10:58.817Z,5.63
2022-09-28T12:13:49.225Z,4.40
2022-09-28T12:17:00.535Z,4.55
2022-09-28T12:19:20.307Z,3.97
2022-09-28T12:21:52.554Z,4.68
2022-09-28T12:24:28.865Z,4.90
2022-09-28T12:27:05.724Z,5.32
2022-09-28T12:29:41.198Z,4.93
2022-09-28T12:32:24.285Z,5.07
2022-09-28T12:34:52.606Z,4.88
2022-09-28T12:37:41.807Z,5.47
2022-09-28T12:40:36.959Z,4.07
2022-09-28T12:43:40.558Z,4.75
2022-09-28T12:46:43.134Z,6.10
2022-09-28T12:52:37.809Z,5.13
2022-09-28T12:55:26.511Z,5.10
2022-09-28T12:58:07.427Z,5.65
2022-09-28T13:00:48.324Z,4.80
2022-09-28T13:03:52.261Z,5.75
2022-09-28T13:06:35.311Z,4.82
2022-09-28T13:09:21.877Z,4.53
2022-09-28T13:12:12.030Z,5.07
2022-09-28T13:15:24.805Z,4.57
2022-09-28T13:18:05.026Z,5.10
2022-09-28T13:20:47.205Z,5.65
2022-09-28T13:25:55.725Z,5.35
2022-09-28T13:28:28.282Z,5.85
2022-09-28T13:33:35.702Z,5.85
2022-09-28T13:36:04.946Z,6.45
2022-09-28T13:38:50.256Z,6.05
2022-09-28T13:41:24.716Z,5.97
2022-09-28T13:44:58.527Z,6.53
2022-09-28T13:48:01.359Z,5.78
2022-09-28T13:50:40.365Z,5.35
2022-09-28T13:53:21.974Z,4.93
2022-09-28T13:56:01.670Z,4.55
2022-09-28T13:58:33.412Z,3.60
2022-09-28T14:01:08.655Z,3.60
2022-09-28T14:03:57.240Z,4.07
2022-09-28T14:06:28.490Z,4.03
2022-09-28T14:09:24.201Z,4.32
2022-09-28T14:11:59.257Z,4.70
2022-09-28T14:14:50.719Z,4.13
2022-09-28T14:18:00.264Z,3.90
2022-09-28T14:20:31.790Z,3.90
2022-09-28T14:23:38.931Z,4.28
2022-09-28T14:26:57.906Z,4.32
2022-09-28T14:29:30.008Z,4.43
2022-09-28T14:31:59.851Z,3.80
2022-09-28T14:34:36.213Z,4.65
2022-09-28T14:37:36.052Z,4.88
2022-09-28T14:40:37.891Z,3.95
2022-09-28T14:43:36.480Z,4.45
2022-09-28T14:46:36.099Z,4.30
2022-09-28T14:49:30.903Z,4.82
2022-09-28T14:52:04.502Z,4.28
2022-09-28T14:54:54.808Z,3.35
2022-09-28T14:57:27.364Z,3.78
2022-09-28T15:00:00.029Z,3.72
2022-09-28T15:02:33.349Z,3.83
2022-09-28T15:05:15.476Z,3.92
2022-09-28T15:07:49.490Z,3.85
2022-09-28T15:10:28.464Z,3.50
2022-09-28T15:12:57.185Z,3.72
2022-09-28T15:15:34.424Z,3.28
2022-09-28T15:18:34.000Z,3.60
2022-09-28T15:21:03.325Z,3.33
2022-09-28T15:23:38.769Z,3.63
2022-09-28T15:26:09.363Z,3.33
2022-09-28T15:28:44.834Z,3.50
2022-09-28T15:31:19.963Z,3.78
2022-09-28T15:34:06.601Z,2.78
2022-09-28T15:36:39.355Z,2.80
2022-09-28T15:39:15.494Z,3.00
2022-09-28T15:41:44.862Z,2.88
2022-09-28T15:44:31.006Z,3.08
2022-09-28T15:47:13.900Z,2.67
2022-09-28T15:49:46.994Z,3.03
2022-09-28T15:52:33.892Z,2.90
2022-09-28T15:55:07.188Z,2.70
2022-09-28T15:57:38.673Z,3.08
2022-09-28T16:00:25.639Z,3.33
2022-09-28T16:03:24.537Z,2.90
2022-09-28T16:06:06.156Z,2.75
2022-09-28T16:08:42.623Z,2.95
2022-09-28T16:11:19.874Z,3.67
2022-09-28T16:14:01.617Z,2.70
2022-09-28T16:16:35.294Z,3.00
2022-09-28T16:19:04.031Z,3.10
2022-09-28T16:21:46.453Z,3.55
2022-09-28T16:24:28.243Z,3.03
2022-09-28T16:27:02.537Z,3.05
2022-09-28T16:29:40.102Z,2.75
2022-09-28T16:32:38.551Z,3.17
2022-09-28T16:35:21.397Z,3.83
2022-09-28T16:37:57.965Z,3.70
2022-09-28T16:40:26.819Z,4.00
2022-09-28T16:43:00.956Z,3.58
2022-09-28T16:45:28.986Z,3.35
2022-09-28T16:47:58.437Z,3.80
2022-09-28T16:50:27.219Z,3.72
2022-09-28T16:53:19.651Z,3.97
2022-09-28T16:58:19.515Z,3.60
2022-09-28T17:00:47.523Z,3.42
2022-09-28T17:03:18.330Z,3.17
2022-09-28T17:05:48.537Z,4.00
2022-09-28T17:08:18.328Z,3.40
2022-09-28T17:11:13.976Z,3.90
2022-09-28T17:13:43.645Z,3.78
2022-09-28T17:16:15.710Z,3.78
2022-09-28T17:18:43.880Z,3.92
2022-09-28T17:21:16.056Z,3.88
2022-09-28T17:26:21.732Z,2.80
2022-09-28T17:28:51.117Z,4.40
2022-09-28T17:31:19.231Z,3.80
2022-09-28T17:33:47.475Z,3.50
2022-09-28T17:36:18.855Z,3.90
2022-09-28T17:38:48.884Z,3.90
2022-09-28T17:41:20.829Z,4.30
2022-09-28T17:46:29.013Z,4.97
2022-09-28T17:49:00.296Z,5.15
2022-09-28T17:51:30.185Z,5.55
2022-09-28T17:53:58.613Z,6.63
2022-09-28T17:56:31.639Z,6.10
2022-09-28T17:59:05.786Z,6.38
2022-09-28T18:01:35.064Z,7.53
2022-09-28T18:04:05.242Z,5.57
2022-09-28T18:06:34.343Z,7.25
2022-09-28T18:09:03.927Z,6.63
2022-09-28T18:11:33.496Z,5.05
2022-09-28T18:14:05.768Z,7.15
2022-09-28T18:16:36.702Z,6.68
2022-09-28T18:19:04.875Z,6.40
2022-09-28T18:21:33.453Z,7.60
2022-09-28T18:24:02.020Z,8.32
2022-09-28T18:26:30.255Z,7.72
2022-09-28T18:28:58.471Z,7.72
2022-09-28T18:31:28.098Z,7.47
2022-09-28T18:34:00.865Z,8.18
2022-09-28T18:36:35.474Z,8.73
2022-09-28T18:39:04.187Z,8.77
2022-09-28T18:41:32.862Z,9.25
2022-09-28T18:44:01.412Z,7.50
2022-09-28T18:46:36.348Z,7.95
2022-09-28T18:49:05.331Z,7.95
2022-09-28T18:51:33.855Z,7.82
2022-09-28T18:54:07.076Z,7.32
2022-09-28T18:56:37.975Z,7.63
2022-09-28T18:59:11.976Z,8.52
2022-09-28T19:01:43.494Z,7.55
2022-09-28T19:04:13.457Z,7.68
2022-09-28T19:06:44.619Z,8.43
2022-09-28T19:09:13.193Z,8.43
2022-09-28T19:11:41.492Z,7.78
2022-09-28T19:14:14.891Z,9.18
2022-09-28T19:16:46.027Z,8.48
2022-09-28T19:19:16.710Z,9.43
2022-09-28T19:21:45.883Z,8.52
2022-09-28T19:24:15.678Z,9.52
2022-09-28T19:26:45.121Z,9.25
2022-09-28T19:29:14.369Z,9.43
2022-09-28T19:31:44.388Z,8.68
2022-09-28T19:34:14.226Z,9.32
2022-09-28T19:36:43.416Z,9.88
2022-09-28T19:39:15.080Z,9.63
2022-09-28T19:41:49.468Z,9.80
2022-09-28T19:44:25.642Z,10.40
2022-09-28T19:46:57.167Z,10.95
2022-09-28T19:49:27.551Z,12.43
2022-09-28T19:52:14.660Z,10.35
2022-09-28T19:54:45.161Z,10.93
2022-09-28T19:57:16.351Z,11.32
2022-09-28T19:59:45.910Z,12.02
2022-09-28T20:02:16.995Z,11.23
2022-09-28T20:04:45.172Z,11.40
2022-09-28T20:07:13.335Z,11.48
2022-09-28T20:09:41.975Z,11.18
2022-09-28T20:12:11.158Z,11.85
2022-09-28T20:14:40.444Z,11.23
2022-09-28T20:17:10.087Z,11.90
2022-09-28T20:19:39.634Z,11.45
2022-09-28T20:22:07.837Z,11.70
2022-09-28T20:24:35.950Z,12.90
2022-09-28T20:27:04.149Z,13.43
2022-09-28T20:29:33.211Z,12.77
2022-09-28T20:32:03.840Z,11.68
2022-09-28T20:34:33.494Z,11.57
2022-09-28T20:37:03.302Z,11.88
2022-09-28T20:39:31.485Z,10.45
2022-09-28T20:41:59.640Z,11.90
2022-09-28T20:44:28.199Z,12.65
2022-09-28T20:46:56.710Z,10.52
2022-09-28T20:49:24.878Z,11.00
2022-09-28T20:51:53.116Z,12.38
2022-09-28T20:54:23.379Z,13.45
2022-09-28T20:56:52.045Z,12.13
2022-09-28T20:59:22.790Z,11.27
2022-09-28T21:01:51.863Z,11.50
2022-09-28T21:04:20.506Z,11.25
2022-09-28T21:06:49.261Z,11.15
2022-09-28T21:09:17.401Z,11.27
2022-09-28T21:11:48.054Z,12.23
2022-09-28T21:14:16.470Z,11.70
2022-09-28T21:16:44.668Z,11.88
2022-09-28T21:19:12.823Z,11.55
2022-09-28T21:21:41.063Z,11.40
2022-09-28T21:24:09.753Z,11.48
2022-09-28T21:26:39.082Z,12.00
2022-09-28T21:29:12.915Z,11.38
2022-09-28T21:31:45.558Z,10.98
2022-09-28T21:34:19.233Z,10.95
2022-09-28T21:36:48.416Z,11.90
2022-09-28T21:39:16.623Z,11.35
2022-09-28T21:41:45.543Z,12.57
2022-09-28T21:44:15.069Z,11.48
2022-09-28T21:46:43.877Z,12.93
2022-09-28T21:49:13.365Z,11.98
2022-09-28T21:51:41.619Z,11.48
2022-09-28T21:54:09.946Z,11.95
2022-09-28T21:56:38.128Z,12.10
2022-09-28T21:59:06.305Z,13.80
2022-09-28T22:01:35.900Z,11.48
2022-09-28T22:04:04.046Z,11.13
2022-09-28T22:06:32.145Z,11.18
2022-09-28T22:09:00.747Z,12.68
2022-09-28T22:11:30.002Z,11.20
2022-09-28T22:14:00.782Z,11.35
2022-09-28T22:16:31.639Z,12.18
2022-09-28T22:19:01.473Z,12.05
2022-09-28T22:21:33.226Z,11.00
2022-09-28T22:24:03.769Z,12.48
2022-09-28T22:26:34.870Z,12.18
2022-09-28T22:29:06.310Z,12.05
2022-09-28T22:31:37.075Z,12.63
2022-09-28T22:34:07.439Z,12.27
2022-09-28T22:36:35.606Z,12.63
2022-09-28T22:39:04.525Z,14.10
2022-09-28T22:41:33.471Z,13.32
2022-09-28T22:44:02.388Z,11.88
2022-09-28T22:46:32.135Z,14.25
2022-09-28T22:49:01.695Z,13.35
2022-09-28T22:51:32.095Z,12.27
2022-09-28T22:54:01.107Z,14.05
2022-09-28T22:56:30.096Z,12.05
2022-09-28T22:58:58.521Z,13.18
2022-09-28T23:01:29.382Z,12.75
2022-09-28T23:03:59.293Z,13.02
2022-09-28T23:06:30.865Z,12.90
2022-09-28T23:08:59.196Z,14.63
2022-09-28T23:11:27.808Z,14.07
2022-09-28T23:13:58.150Z,13.48
2022-09-28T23:16:27.426Z,13.50
2022-09-28T23:18:56.838Z,13.40
2022-09-28T23:21:27.278Z,13.55
2022-09-28T23:23:58.792Z,13.30
2022-09-28T23:26:29.161Z,13.38
2022-09-28T23:28:58.480Z,13.30
2022-09-28T23:31:28.617Z,13.32
2022-09-28T23:34:00.422Z,12.55
2022-09-28T23:36:28.900Z,12.63
2022-09-28T23:38:58.993Z,13.40
2022-09-28T23:41:27.221Z,12.95
2022-09-28T23:43:55.362Z,13.88
2022-09-28T23:46:24.304Z,13.25
2022-09-28T23:48:52.671Z,12.70
2022-09-28T23:51:20.847Z,12.73
2022-09-28T23:53:49.113Z,12.70
2022-09-28T23:56:18.691Z,12.93
2022-09-28T23:58:46.793Z,11.93
